Wakefield, New York
Current Conditions -  °F | °C
As of 3:51 AM on Saturday 25 Oct 2014 (Local Time) from KLGA Reporting Station
Broken Clouds Broken Clouds  
Wind Chill: 54°   Ceiling: 25000
Heat Index: 54°   Visibility: 10mi
Dew Point: 39°   Wind: 10mph
Humidity: 57%   Direction: 310°NW
Pressure: 29.85"   Gusts: NA
Location:  40.8905°N, 73.8471°W
Report Text: KLGA 250751Z 31009KT 10SM BKN250 12/04 A2985 RMK AO2 SLP107 T01220039
Loading
Personal Weather Stations






























Interactive Weather Map
Tropical Storm Tracking
New forecast layout! Learn more

10-Day Weather Forecast

Advertisements
Track Severe Weather on mobile